Time;durP1;ratioP1;P1;durP2;ratioP2;P2;SDS_P1;SDS_P2;PMS_P1;PMS_P2;Temp;Humidity;BMP_temperature;BMP_pressure;BME280_temperature;BME280_humidity;BME280_pressure;Samples;Min_cycle;Max_cycle;Signal;HPM_P1;HPM_P2
2022/10/04 00:04:04;;;;;;;0.10;0.10;;;;;;;11.64;60.62;98728.38;8001675;29;20251;-83
2022/10/04 00:08:18;;;;;;;0.10;0.10;;;;;;;11.62;60.94;98717.19;8001299;29;20243;-83
2022/10/04 00:12:24;;;;;;;0.00;0.00;;;;;;;11.51;60.60;98723.59;8001336;29;20454;-83
2022/10/04 00:16:30;;;;;;;0.10;0.10;;;;;;;11.43;60.74;98712.66;8000885;29;20239;-82
2022/10/04 00:21:08;;;;;;;0.10;0.10;;;;;;;11.39;60.92;98711.09;8001470;29;20235;-83
2022/10/04 00:25:19;;;;;;;0.10;0.10;;;;;;;11.46;60.74;98706.50;7909205;30;20245;-82
2022/10/04 00:29:33;;;;;;;0.10;0.10;;;;;;;11.40;60.54;98709.34;7954960;29;20235;-83
2022/10/04 00:33:36;;;;;;;0.10;0.10;;;;;;;11.33;60.99;98708.72;8002912;29;20247;-82
2022/10/04 00:42:40;;;;;;;0.10;0.10;;;;;;;11.34;60.61;98693.09;8381149;27;20906;-79
2022/10/04 00:46:45;;;;;;;0.10;0.10;;;;;;;11.37;60.99;98692.16;8369335;28;20274;-78
2022/10/04 00:50:50;;;;;;;0.10;0.10;;;;;;;11.30;61.45;98693.25;8374892;28;20239;-78
2022/10/04 00:54:56;;;;;;;0.10;0.10;;;;;;;11.33;61.26;98694.00;8375203;28;20292;-79
2022/10/04 00:59:20;;;;;;;0.10;0.10;;;;;;;11.33;61.09;98696.59;8375077;28;20270;-79
2022/10/04 01:07:42;;;;;;;0.10;0.10;;;;;;;11.17;62.36;98686.81;8872675;23;20233;-74
2022/10/04 01:11:50;;;;;;;0.10;0.10;;;;;;;11.14;62.72;98687.78;8304497;28;20415;-74
2022/10/04 01:15:59;;;;;;;0.10;0.10;;;;;;;11.14;62.63;98700.75;8309521;28;20255;-74
2022/10/04 01:20:02;;;;;;;0.20;0.20;;;;;;;11.19;63.15;98705.75;8309507;28;20229;-74
2022/10/04 01:24:22;;;;;;;0.10;0.10;;;;;;;11.18;62.56;98704.91;8309338;28;20434;-74
2022/10/04 01:28:25;;;;;;;0.10;0.10;;;;;;;10.99;63.46;98699.53;8309311;28;20237;-74
2022/10/04 01:32:29;;;;;;;0.10;0.10;;;;;;;11.02;63.49;98691.63;8308592;28;20233;-74
2022/10/04 01:36:33;;;;;;;0.20;0.20;;;;;;;10.94;63.49;98691.06;8309004;28;20244;-75
2022/10/04 01:40:44;;;;;;;0.20;0.20;;;;;;;11.01;62.77;98687.34;8308547;28;20249;-74
2022/10/04 01:44:50;;;;;;;0.20;0.20;;;;;;;11.06;64.15;98679.41;8308647;28;20575;-75
2022/10/04 01:48:55;;;;;;;0.10;0.10;;;;;;;11.09;63.52;98681.91;8308495;28;20457;-74
2022/10/04 01:53:01;;;;;;;0.10;0.10;;;;;;;11.07;63.29;98684.53;8289598;28;20229;-74
2022/10/04 01:57:12;;;;;;;0.30;0.30;;;;;;;10.92;63.15;98674.72;8286618;28;20236;-74
2022/10/04 02:01:22;;;;;;;0.20;0.20;;;;;;;11.00;63.80;98675.28;8286615;28;20401;-74
2022/10/04 02:05:29;;;;;;;0.10;0.10;;;;;;;11.02;63.00;98675.25;8286752;28;20241;-74
2022/10/04 02:09:35;;;;;;;0.10;0.10;;;;;;;10.88;63.44;98668.78;8253698;28;20533;-74
2022/10/04 02:13:40;;;;;;;0.20;0.20;;;;;;;10.93;62.72;98659.13;8253754;28;20269;-74
2022/10/04 02:17:44;;;;;;;0.10;0.10;;;;;;;10.97;63.06;98665.03;8254050;28;20230;-74
2022/10/04 02:21:47;;;;;;;0.20;0.20;;;;;;;10.95;63.26;98670.28;8253552;28;20253;-74
2022/10/04 02:25:50;;;;;;;0.10;0.10;;;;;;;10.98;62.93;98658.94;8253492;28;20535;-74
2022/10/04 02:30:00;;;;;;;0.10;0.10;;;;;;;10.90;62.91;98655.78;8253340;28;20230;-74
2022/10/04 02:34:03;;;;;;;0.10;0.10;;;;;;;10.95;62.94;98653.88;8253383;28;20241;-74
2022/10/04 02:38:10;;;;;;;0.10;0.10;;;;;;;10.87;62.68;98641.19;8253106;28;20244;-74
2022/10/04 02:42:16;;;;;;;0.10;0.10;;;;;;;10.77;63.02;98626.84;8253126;28;20451;-74
2022/10/04 02:46:24;;;;;;;0.10;0.10;;;;;;;10.60;63.84;98627.44;8252835;28;20237;-74
2022/10/04 02:50:30;;;;;;;0.20;0.20;;;;;;;10.73;63.09;98627.84;8252420;28;20242;-74
2022/10/04 02:54:37;;;;;;;0.20;0.20;;;;;;;10.61;63.69;98638.66;8252998;28;20234;-74
2022/10/04 02:58:41;;;;;;;0.10;0.10;;;;;;;10.61;63.51;98631.72;8252776;28;20234;-74
2022/10/04 03:03:10;;;;;;;0.20;0.20;;;;;;;10.62;64.12;98648.09;8251200;28;20253;-74
2022/10/04 03:07:13;;;;;;;0.20;0.20;;;;;;;10.65;64.14;98645.41;8252195;28;20226;-75
2022/10/04 03:11:16;;;;;;;0.20;0.20;;;;;;;10.61;64.33;98644.66;8252024;28;20230;-74
2022/10/04 03:15:20;;;;;;;0.10;0.10;;;;;;;10.74;64.39;98655.47;8252068;28;20293;-74
2022/10/04 03:19:25;;;;;;;0.10;0.10;;;;;;;10.92;64.10;98652.22;8251828;28;20258;-74
2022/10/04 03:23:30;;;;;;;0.30;0.30;;;;;;;10.51;63.72;98653.66;8251449;28;20534;-74
2022/10/04 03:27:34;;;;;;;0.20;0.20;;;;;;;10.71;64.67;98671.94;8251739;28;20237;-74
2022/10/04 03:31:40;;;;;;;0.10;0.10;;;;;;;10.66;64.36;98665.22;8251457;28;20276;-74
2022/10/04 03:35:46;;;;;;;0.10;0.10;;;;;;;10.53;64.11;98647.53;8251706;28;20576;-74
2022/10/04 03:39:51;;;;;;;0.10;0.10;;;;;;;10.63;64.30;98640.28;8250880;28;20238;-74
2022/10/04 03:43:55;;;;;;;0.10;0.10;;;;;;;10.71;63.11;98634.84;8251244;28;20226;-74
2022/10/04 03:48:03;;;;;;;0.10;0.10;;;;;;;10.45;64.20;98622.75;8251087;28;20230;-74
2022/10/04 03:52:15;;;;;;;0.10;0.10;;;;;;;10.62;63.47;98630.81;8251133;28;20234;-74
2022/10/04 03:56:20;;;;;;;0.10;0.10;;;;;;;10.52;63.91;98626.84;8251022;28;20250;-74
2022/10/04 04:00:23;;;;;;;0.10;0.10;;;;;;;10.59;63.24;98638.69;8250749;28;20238;-74
2022/10/04 04:04:32;;;;;;;0.10;0.10;;;;;;;10.64;63.91;98633.34;8250285;28;20253;-73
2022/10/04 04:08:39;;;;;;;0.10;0.10;;;;;;;10.80;62.99;98642.31;8250532;28;20249;-74
2022/10/04 04:12:45;;;;;;;0.10;0.10;;;;;;;10.64;64.24;98646.31;8250088;28;20238;-74
2022/10/04 04:16:48;;;;;;;0.10;0.10;;;;;;;10.68;63.39;98617.66;8250185;28;20356;-74
2022/10/04 04:20:53;;;;;;;0.10;0.10;;;;;;;10.81;63.25;98610.28;8250221;28;20405;-75
2022/10/04 04:24:58;;;;;;;0.10;0.10;;;;;;;10.90;63.47;98622.94;8250134;28;20222;-74
2022/10/04 04:29:05;;;;;;;0.10;0.10;;;;;;;10.79;63.06;98626.81;8250022;28;20284;-74
2022/10/04 04:33:12;;;;;;;0.10;0.10;;;;;;;10.68;63.92;98611.63;8250384;28;20233;-74
2022/10/04 04:37:20;;;;;;;0.10;0.10;;;;;;;10.75;63.88;98605.34;8250100;28;20537;-74
2022/10/04 04:41:25;;;;;;;0.10;0.10;;;;;;;10.76;63.47;98620.84;8250084;28;20242;-75
2022/10/04 04:45:30;;;;;;;0.00;0.00;;;;;;;10.86;63.55;98641.25;8249508;28;20235;-74
2022/10/04 04:49:33;;;;;;;0.10;0.10;;;;;;;10.86;64.08;98649.03;8249808;28;20241;-71
2022/10/04 04:53:38;;;;;;;0.10;0.10;;;;;;;10.73;64.04;98641.66;8250200;28;20234;-74
2022/10/04 04:57:43;;;;;;;0.10;0.10;;;;;;;10.81;63.81;98641.38;8249538;28;20297;-73
2022/10/04 05:01:48;;;;;;;0.10;0.10;;;;;;;10.70;64.56;98639.19;8249446;28;20251;-74
2022/10/04 05:05:53;;;;;;;0.10;0.10;;;;;;;10.78;63.78;98628.56;8249487;28;20288;-73
2022/10/04 05:09:56;;;;;;;0.10;0.10;;;;;;;10.41;65.21;98622.00;8249467;28;20441;-74
2022/10/04 05:14:02;;;;;;;0.10;0.10;;;;;;;10.68;63.76;98620.25;8249257;28;20418;-74
2022/10/04 05:18:16;;;;;;;0.10;0.10;;;;;;;10.20;65.27;98618.34;8249231;28;20266;-74
2022/10/04 05:22:21;;;;;;;0.10;0.10;;;;;;;10.33;65.49;98618.84;8249308;28;20230;-74
2022/10/04 05:26:28;;;;;;;0.10;0.10;;;;;;;10.53;64.28;98625.97;8251203;28;20234;-73
2022/10/04 05:30:45;;;;;;;0.10;0.10;;;;;;;10.61;63.96;98617.94;8254786;28;20237;-76
2022/10/04 05:34:49;;;;;;;0.10;0.10;;;;;;;10.62;64.17;98625.63;8255197;28;20234;-73
2022/10/04 05:39:02;;;;;;;0.10;0.10;;;;;;;10.43;64.58;98637.50;8255058;28;20226;-72
2022/10/04 05:43:21;;;;;;;0.10;0.10;;;;;;;10.21;64.85;98627.00;8254728;28;20234;-73
2022/10/04 05:47:27;;;;;;;0.10;0.10;;;;;;;10.50;65.04;98626.06;8254835;28;20280;-73
2022/10/04 05:51:32;;;;;;;0.10;0.10;;;;;;;10.64;64.53;98613.50;8254183;28;20548;-73
2022/10/04 05:55:39;;;;;;;0.10;0.10;;;;;;;10.42;64.75;98621.13;8254359;28;20285;-73
2022/10/04 05:59:54;;;;;;;0.10;0.10;;;;;;;10.75;64.33;98634.66;8254481;28;20425;-75
2022/10/04 06:04:29;;;;;;;0.10;0.10;;;;;;;10.69;63.80;98647.00;8254419;28;20234;-74
2022/10/04 06:08:40;;;;;;;0.10;0.10;;;;;;;10.62;64.03;98629.97;8253420;28;20238;-74
2022/10/04 06:12:50;;;;;;;0.10;0.10;;;;;;;10.64;64.56;98639.41;8254119;28;20427;-72
2022/10/04 06:17:14;;;;;;;0.10;0.10;;;;;;;10.81;64.19;98638.78;8254213;28;20238;-73
2022/10/04 06:21:20;;;;;;;0.10;0.10;;;;;;;10.82;63.98;98640.50;8253882;28;20296;-72
2022/10/04 06:25:25;;;;;;;0.10;0.10;;;;;;;10.69;64.59;98640.06;8253531;28;20238;-72
2022/10/04 06:29:30;;;;;;;0.10;0.10;;;;;;;10.96;63.65;98651.22;8228851;28;20231;-73
2022/10/04 06:33:57;;;;;;;0.10;0.10;;;;;;;11.02;63.11;98659.69;8221362;28;20511;-72
2022/10/04 06:38:23;;;;;;;0.10;0.10;;;;;;;10.73;64.00;98651.19;8221161;28;20231;-73
2022/10/04 06:42:39;;;;;;;0.10;0.10;;;;;;;10.84;63.90;98653.41;8220638;28;20270;-72
2022/10/04 06:46:46;;;;;;;0.10;0.10;;;;;;;10.97;64.00;98649.50;8220996;28;20479;-72
2022/10/04 06:50:50;;;;;;;0.10;0.10;;;;;;;10.76;64.76;98648.50;8220915;28;20234;-75
2022/10/04 06:55:18;;;;;;;0.10;0.10;;;;;;;11.18;63.60;98660.84;8220667;28;20241;-74
2022/10/04 06:59:48;;;;;;;0.10;0.10;;;;;;;11.09;63.24;98667.19;8220269;28;20238;-74
2022/10/04 07:03:54;;;;;;;0.10;0.10;;;;;;;11.22;63.90;98662.44;8220083;28;20238;-74
2022/10/04 07:08:06;;;;;;;0.10;0.10;;;;;;;11.32;63.13;98656.00;8220128;28;20610;-73
2022/10/04 07:12:16;;;;;;;0.10;0.10;;;;;;;11.34;63.37;98650.75;8220197;28;20234;-73
2022/10/04 07:16:34;;;;;;;0.10;0.10;;;;;;;11.51;63.16;98653.56;8220160;28;20546;-73
2022/10/04 07:20:37;;;;;;;0.10;0.10;;;;;;;11.55;63.88;98668.13;8219514;28;20246;-73
2022/10/04 07:24:49;;;;;;;0.10;0.10;;;;;;;11.66;63.16;98666.88;8219749;28;20235;-74
2022/10/04 07:33:20;;;;;;;0.10;0.10;;;;;;;11.44;64.62;98672.88;8219626;28;20411;-73
2022/10/04 07:37:26;;;;;;;0.10;0.10;;;;;;;11.77;64.11;98669.91;8219531;28;20242;-73
2022/10/04 07:41:32;;;;;;;0.10;0.10;;;;;;;12.16;64.38;98684.88;8218937;28;20431;-73
2022/10/04 07:45:39;;;;;;;0.10;0.10;;;;;;;12.26;63.41;98662.84;8219163;28;20239;-73
2022/10/04 07:49:41;;;;;;;0.10;0.10;;;;;;;12.22;62.74;98663.03;8218601;28;20422;-73
2022/10/04 07:53:48;;;;;;;0.10;0.10;;;;;;;12.04;63.52;98659.41;8219109;28;20409;-72
2022/10/04 07:57:58;;;;;;;0.10;0.10;;;;;;;13.22;76.98;98671.84;8220203;28;20289;-74
2022/10/04 08:02:16;;;;;;;0.10;0.10;;;;;;;14.33;68.28;98690.25;8218792;28;20246;-73
2022/10/04 08:06:23;;;;;;;0.10;0.10;;;;;;;14.86;60.96;98684.19;8218499;28;20270;-73
2022/10/04 08:10:29;;;;;;;0.10;0.10;;;;;;;14.51;57.40;98668.50;8218175;28;20231;-73
2022/10/04 08:14:51;;;;;;;0.10;0.10;;;;;;;14.16;58.76;98675.41;8218389;28;20234;-74
2022/10/04 08:19:07;;;;;;;0.00;0.00;;;;;;;14.01;58.84;98680.44;8218512;28;20234;-74
2022/10/04 08:23:23;;;;;;;0.00;0.00;;;;;;;14.24;59.19;98679.34;8218248;28;20535;-74
2022/10/04 08:29:41;;;;;;;0.00;0.00;;;;;;;14.31;58.41;98692.91;8217916;28;20231;-73
2022/10/04 08:32:33;;;;;;;0.00;0.00;;;;;;;14.47;57.99;98686.06;8217999;28;20282;-73
2022/10/04 08:36:47;;;;;;;0.10;0.10;;;;;;;14.19;58.88;98688.28;8249790;28;20234;-72
2022/10/04 08:41:24;;;;;;;0.00;0.00;;;;;;;14.36;58.95;98684.88;8251773;28;20241;-73
2022/10/04 08:45:44;;;;;;;0.10;0.10;;;;;;;14.70;58.38;98698.88;8253640;28;20241;-72
2022/10/04 08:50:23;;;;;;;0.10;0.10;;;;;;;14.89;57.98;98697.06;8250120;28;20230;-72
2022/10/04 08:54:50;;;;;;;0.00;0.00;;;;;;;15.14;58.22;98693.22;8248394;28;20473;-72
2022/10/04 08:59:24;;;;;;;0.00;0.00;;;;;;;14.74;58.17;98685.63;8249736;28;20246;-73
2022/10/04 09:04:17;;;;;;;0.00;0.00;;;;;;;14.85;58.43;98687.72;8254789;28;20238;-71
2022/10/04 09:08:41;;;;;;;0.10;0.10;;;;;;;14.83;59.37;98694.75;8252359;28;20282;-73
2022/10/04 09:12:51;;;;;;;0.07;0.07;;;;;;;14.99;59.69;98685.25;8255716;28;20426;-73
2022/10/04 09:16:59;;;;;;;0.00;0.00;;;;;;;14.68;59.82;98692.91;8256103;28;20297;-72
2022/10/04 09:21:09;;;;;;;0.10;0.10;;;;;;;15.41;58.13;98690.94;8256041;28;20233;-72
2022/10/04 09:25:48;;;;;;;0.00;0.00;;;;;;;15.71;58.20;98693.69;8255678;28;20234;-72
2022/10/04 09:30:03;;;;;;;0.10;0.10;;;;;;;15.50;57.98;98692.19;8254781;28;20275;-72
2022/10/04 09:34:16;;;;;;;0.00;0.00;;;;;;;15.66;57.63;98687.84;8255138;28;20479;-73
2022/10/04 09:38:55;;;;;;;0.00;0.00;;;;;;;16.22;57.15;98677.84;8255223;28;20544;-73
2022/10/04 09:43:48;;;;;;;0.00;0.00;;;;;;;16.31;54.98;98668.66;8254704;28;20234;-72
2022/10/04 09:48:01;;;;;;;0.00;0.00;;;;;;;17.07;54.61;98671.25;8254708;28;20299;-72
2022/10/04 09:52:17;;;;;;;0.10;0.10;;;;;;;17.90;51.75;98675.84;8254751;28;20230;-72
2022/10/04 09:56:55;;;;;;;0.00;0.00;;;;;;;18.24;50.93;98671.03;8254755;28;20456;-72
2022/10/04 10:01:07;;;;;;;0.00;0.00;;;;;;;18.23;50.85;98662.34;8252255;28;20249;-72
2022/10/04 10:05:23;;;;;;;0.00;0.00;;;;;;;18.31;49.77;98672.34;8254108;28;20234;-73
2022/10/04 10:14:29;;;;;;;0.00;0.00;;;;;;;18.71;48.98;98680.22;8237234;28;20233;-72
2022/10/04 10:18:44;;;;;;;0.00;0.00;;;;;;;18.88;48.71;98677.31;8253502;28;20230;-72
2022/10/04 10:23:12;;;;;;;0.00;0.00;;;;;;;18.99;49.34;98665.28;8254126;28;20448;-73
2022/10/04 10:27:36;;;;;;;0.00;0.00;;;;;;;19.01;47.76;98671.25;8253904;28;20230;-73
2022/10/04 10:32:00;;;;;;;0.00;0.00;;;;;;;19.28;47.35;98668.53;8253654;28;20238;-73
2022/10/04 10:36:26;;;;;;;0.00;0.00;;;;;;;19.42;48.78;98664.94;8253241;28;20241;-74
2022/10/04 10:40:42;;;;;;;0.00;0.00;;;;;;;19.70;45.04;98659.44;8237227;28;20238;-74
2022/10/04 10:45:25;;;;;;;0.00;0.00;;;;;;;19.81;45.01;98652.63;8252921;28;20338;-73
2022/10/04 10:49:43;;;;;;;0.00;0.00;;;;;;;19.85;44.35;98647.00;8238223;28;20233;-74
2022/10/04 10:54:19;;;;;;;0.00;0.00;;;;;;;19.94;42.81;98653.41;8253051;28;20246;-75
2022/10/04 10:58:49;;;;;;;0.00;0.00;;;;;;;20.07;42.83;98648.94;8252799;28;20467;-74
2022/10/04 11:03:20;;;;;;;0.00;0.00;;;;;;;19.91;43.27;98640.47;8220204;28;20548;-74
2022/10/04 11:07:48;;;;;;;0.00;0.00;;;;;;;20.26;42.34;98631.84;8251535;28;20438;-74
2022/10/04 11:12:24;;;;;;;0.00;0.00;;;;;;;20.05;43.05;98632.44;8252317;28;20236;-75
2022/10/04 11:16:55;;;;;;;0.00;0.00;;;;;;;19.94;40.94;98627.13;8251772;28;20246;-76
2022/10/04 11:21:40;;;;;;;0.00;0.00;;;;;;;19.47;42.72;98632.16;8251954;28;20283;-75
2022/10/04 11:25:59;;;;;;;0.00;0.00;;;;;;;19.61;41.65;98615.44;8250483;28;20590;-75
2022/10/04 11:30:14;;;;;;;0.00;0.00;;;;;;;20.02;41.22;98609.00;8251794;28;20431;-76
2022/10/04 11:34:56;;;;;;;0.00;0.00;;;;;;;19.97;39.49;98611.16;8251984;28;20232;-76
2022/10/04 11:39:35;;;;;;;0.00;0.00;;;;;;;20.27;39.11;98607.19;8251408;28;20237;-76
2022/10/04 11:43:55;;;;;;;0.00;0.00;;;;;;;20.42;40.13;98613.13;8251291;28;20295;-76
2022/10/04 11:48:10;;;;;;;0.00;0.00;;;;;;;20.59;38.75;98610.06;8251489;28;20228;-76
2022/10/04 11:52:42;;;;;;;0.00;0.00;;;;;;;20.37;39.78;98604.72;8251116;28;20263;-75
2022/10/04 11:57:03;;;;;;;0.00;0.00;;;;;;;20.42;38.64;98616.56;8250586;28;20574;-75
2022/10/04 12:01:46;;;;;;;0.00;0.00;;;;;;;20.67;39.04;98604.25;8250873;28;20233;-76
2022/10/04 12:06:13;;;;;;;0.00;0.00;;;;;;;20.63;38.27;98608.06;8195945;28;20458;-75
2022/10/04 12:10:24;;;;;;;0.00;0.00;;;;;;;20.79;38.07;98615.63;8250647;28;20257;-75
2022/10/04 12:14:39;;;;;;;0.00;0.00;;;;;;;20.23;37.32;98597.88;8250159;28;20273;-74
2022/10/04 12:19:26;;;;;;;0.00;0.00;;;;;;;20.54;38.13;98604.28;8250187;28;20235;-75
2022/10/04 12:23:54;;;;;;;0.00;0.00;;;;;;;19.92;36.46;98598.31;8235852;28;20241;-75
2022/10/04 12:28:11;;;;;;;0.00;0.00;;;;;;;19.96;36.65;98604.19;8250422;28;20462;-76
2022/10/04 12:32:18;;;;;;;0.00;0.00;;;;;;;20.20;37.00;98590.19;8249838;28;20533;-76
2022/10/04 12:36:30;;;;;;;0.00;0.00;;;;;;;20.19;37.79;98586.72;8248978;28;20230;-75
2022/10/04 12:40:39;;;;;;;0.00;0.00;;;;;;;20.57;37.82;98588.28;8249474;28;20237;-75
2022/10/04 12:44:55;;;;;;;0.00;0.00;;;;;;;20.76;36.91;98589.56;8250018;28;20253;-76
2022/10/04 12:49:14;;;;;;;0.00;0.00;;;;;;;20.53;36.90;98586.00;8249919;28;20390;-75
2022/10/04 12:53:22;;;;;;;0.00;0.00;;;;;;;20.97;36.72;98577.38;8249868;28;20579;-75
2022/10/04 12:57:46;;;;;;;0.00;0.00;;;;;;;20.74;37.40;98567.78;8249401;28;20232;-73
2022/10/04 13:01:56;;;;;;;0.00;0.00;;;;;;;21.03;36.81;98576.88;8249673;28;20236;-75
2022/10/04 13:06:09;;;;;;;0.00;0.00;;;;;;;21.24;37.71;98578.81;8249097;28;20292;-76
2022/10/04 13:10:27;;;;;;;0.00;0.00;;;;;;;21.12;36.70;98572.72;8249432;28;20234;-76
2022/10/04 13:15:00;;;;;;;0.00;0.00;;;;;;;21.16;36.56;98573.31;8249152;28;20556;-74
2022/10/04 13:19:12;;;;;;;0.00;0.00;;;;;;;21.27;36.68;98568.88;8248826;28;20240;-76
2022/10/04 13:23:25;;;;;;;0.00;0.00;;;;;;;21.13;36.60;98563.84;8250070;28;20275;-78
2022/10/04 13:27:32;;;;;;;0.00;0.00;;;;;;;20.96;36.69;98567.81;8249964;28;20230;-75
2022/10/04 13:31:40;;;;;;;0.00;0.00;;;;;;;21.47;34.56;98569.13;8247988;28;20420;-75
2022/10/04 13:35:50;;;;;;;0.00;0.00;;;;;;;21.38;35.62;98568.03;8249523;28;20238;-76
2022/10/04 13:40:15;;;;;;;0.00;0.00;;;;;;;21.43;36.48;98554.47;8249370;28;20230;-76
2022/10/04 13:44:28;;;;;;;0.00;0.00;;;;;;;21.21;35.45;98563.22;8249137;28;20234;-77
2022/10/04 13:48:42;;;;;;;0.00;0.00;;;;;;;21.33;34.99;98558.81;8252331;28;20506;-77
2022/10/04 13:57:18;;;;;;;0.00;0.00;;;;;;;21.53;36.30;98563.34;8255257;28;20232;-77
2022/10/04 14:01:53;;;;;;;0.00;0.00;;;;;;;21.65;36.31;98564.19;8257010;28;20257;-76
2022/10/04 14:06:37;;;;;;;0.00;0.00;;;;;;;21.09;37.17;98567.66;8254134;28;20230;-77
2022/10/04 14:10:58;;;;;;;0.00;0.00;;;;;;;21.38;37.47;98556.63;8253993;28;20464;-76
2022/10/04 14:15:38;;;;;;;0.00;0.00;;;;;;;21.03;38.04;98558.47;8254151;28;20241;-76
2022/10/04 14:20:23;;;;;;;0.00;0.00;;;;;;;20.97;37.59;98552.84;8238280;28;20237;-77
2022/10/04 14:24:56;;;;;;;0.00;0.00;;;;;;;21.26;36.51;98551.38;8252856;28;20237;-76
2022/10/04 14:29:15;;;;;;;0.00;0.00;;;;;;;21.50;36.65;98554.88;8225245;28;20237;-77
2022/10/04 14:33:54;;;;;;;0.00;0.00;;;;;;;21.33;37.15;98551.75;8221891;28;20273;-77
2022/10/04 14:38:36;;;;;;;0.00;0.00;;;;;;;21.24;36.80;98545.41;8205328;28;20282;-76
2022/10/04 14:42:57;;;;;;;0.00;0.00;;;;;;;21.19;38.69;98533.56;8221162;28;20230;-75
2022/10/04 14:47:12;;;;;;;0.00;0.00;;;;;;;21.33;38.28;98532.47;8219809;28;20301;-77
2022/10/04 14:51:27;;;;;;;0.00;0.00;;;;;;;21.31;38.07;98529.13;8220431;28;20554;-75
2022/10/04 14:55:56;;;;;;;0.00;0.00;;;;;;;21.12;39.20;98535.00;8219608;28;20269;-73
2022/10/04 15:00:09;;;;;;;0.00;0.00;;;;;;;21.18;39.64;98532.72;8221057;28;20238;-74
2022/10/04 15:04:31;;;;;;;0.00;0.00;;;;;;;20.93;39.10;98530.34;8220321;28;20230;-74
2022/10/04 15:09:06;;;;;;;0.00;0.00;;;;;;;20.29;39.66;98524.59;8220202;28;20243;-74
2022/10/04 15:13:19;;;;;;;0.00;0.00;;;;;;;20.39;40.38;98519.50;8220010;28;20461;-74
2022/10/04 15:17:26;;;;;;;0.00;0.00;;;;;;;20.25;40.50;98523.16;8220726;28;20238;-75
2022/10/04 15:21:41;;;;;;;0.00;0.00;;;;;;;20.15;40.75;98516.09;8227882;28;20461;-75
2022/10/04 15:25:46;;;;;;;0.00;0.00;;;;;;;19.76;41.20;98507.56;8220093;28;20249;-74
2022/10/04 15:29:57;;;;;;;0.00;0.00;;;;;;;19.44;42.11;98502.81;8215392;28;20237;-74
2022/10/04 15:34:05;;;;;;;0.00;0.00;;;;;;;19.09;42.46;98501.78;8220005;28;20458;-75
2022/10/04 15:38:20;;;;;;;0.00;0.00;;;;;;;19.06;42.85;98502.00;8219607;28;20296;-74
2022/10/04 15:42:25;;;;;;;0.00;0.00;;;;;;;18.78;43.75;98494.38;8219658;28;20236;-74
2022/10/04 15:46:40;;;;;;;0.00;0.00;;;;;;;18.87;43.20;98488.53;8218879;28;20262;-74
2022/10/04 15:50:58;;;;;;;0.00;0.00;;;;;;;18.73;43.49;98494.66;8218580;28;20238;-74
2022/10/04 15:55:20;;;;;;;0.00;0.00;;;;;;;18.21;44.69;98506.09;8218899;28;20250;-73
2022/10/04 15:59:36;;;;;;;0.00;0.00;;;;;;;18.27;44.90;98500.44;8219128;28;20243;-74
2022/10/04 16:03:45;;;;;;;0.00;0.00;;;;;;;18.20;45.87;98497.41;8218225;28;20231;-74
2022/10/04 16:08:00;;;;;;;0.00;0.00;;;;;;;18.21;46.17;98496.47;8218756;28;20235;-75
2022/10/04 16:12:16;;;;;;;0.00;0.00;;;;;;;18.07;46.37;98507.03;8218511;28;20227;-74
2022/10/04 16:16:51;;;;;;;0.00;0.00;;;;;;;17.89;46.61;98509.91;8218704;28;20236;-74
2022/10/04 16:21:04;;;;;;;0.00;0.00;;;;;;;17.92;47.44;98504.47;8222646;28;20514;-75
2022/10/04 16:25:34;;;;;;;0.00;0.00;;;;;;;17.23;48.15;98508.03;8218264;28;20235;-75
2022/10/04 16:29:46;;;;;;;0.00;0.00;;;;;;;17.42;47.46;98492.88;8218148;28;20240;-74
2022/10/04 16:34:17;;;;;;;0.00;0.00;;;;;;;17.53;47.90;98500.84;8218336;28;20507;-74
2022/10/04 16:38:23;;;;;;;0.00;0.00;;;;;;;17.48;47.65;98497.72;8218342;28;20231;-73
2022/10/04 16:42:29;;;;;;;0.00;0.00;;;;;;;17.39;48.32;98488.66;8217862;28;20261;-73
2022/10/04 16:46:37;;;;;;;0.00;0.00;;;;;;;17.39;48.50;98487.81;8218148;28;20246;-74
2022/10/04 16:50:58;;;;;;;0.00;0.00;;;;;;;16.84;50.54;98494.75;8218015;28;20239;-74
2022/10/04 16:55:25;;;;;;;0.00;0.00;;;;;;;17.14;49.78;98496.41;8218186;28;20242;-75
2022/10/04 16:59:43;;;;;;;0.00;0.00;;;;;;;16.98;50.66;98492.13;8217645;28;20230;-74
2022/10/04 17:03:54;;;;;;;0.00;0.00;;;;;;;17.07;50.05;98493.31;8217707;28;20235;-74
2022/10/04 17:08:17;;;;;;;0.00;0.00;;;;;;;16.96;50.59;98504.47;8217743;28;20238;-73
2022/10/04 17:12:26;;;;;;;0.00;0.00;;;;;;;16.89;50.75;98502.31;8179135;28;20420;-74
2022/10/04 17:16:36;;;;;;;0.00;0.00;;;;;;;16.79;51.01;98502.84;8217430;28;20242;-73
2022/10/04 17:20:55;;;;;;;0.00;0.00;;;;;;;16.70;52.14;98526.09;8217558;28;20231;-74
2022/10/04 17:25:02;;;;;;;0.10;0.10;;;;;;;16.62;53.13;98529.19;8223927;28;20235;-76
2022/10/04 17:29:20;;;;;;;0.00;0.00;;;;;;;16.59;53.17;98519.72;8223554;28;20238;-76
2022/10/04 17:33:30;;;;;;;0.00;0.00;;;;;;;16.50;53.67;98525.50;8223477;28;20246;-74
2022/10/04 17:37:43;;;;;;;0.00;0.00;;;;;;;16.45;53.85;98531.94;8223138;28;20286;-74
2022/10/04 17:41:56;;;;;;;0.00;0.00;;;;;;;16.35;54.15;98519.41;8223496;28;20573;-77
2022/10/04 17:46:11;;;;;;;0.00;0.00;;;;;;;16.29;53.89;98524.16;8223045;28;20243;-78
2022/10/04 17:59:10;;;;;;;0.00;0.00;;;;;;;16.01;54.00;98508.34;8222737;28;20226;-76
2022/10/04 18:03:17;;;;;;;0.00;0.00;;;;;;;15.91;54.21;98515.00;8223135;28;20234;-74
2022/10/04 18:07:23;;;;;;;0.00;0.00;;;;;;;15.86;55.05;98509.22;8222728;28;20235;-74
2022/10/04 18:11:33;;;;;;;0.00;0.00;;;;;;;15.80;55.05;98501.72;8222640;28;20235;-73
2022/10/04 18:15:38;;;;;;;0.00;0.00;;;;;;;15.79;55.03;98506.13;8222740;28;20309;-79
2022/10/04 18:19:46;;;;;;;0.00;0.00;;;;;;;15.67;55.06;98500.69;8222088;28;20550;-76
2022/10/04 18:23:56;;;;;;;0.00;0.00;;;;;;;16.63;60.00;98502.09;8222119;28;20230;-80
2022/10/04 18:28:11;;;;;;;0.00;0.00;;;;;;;16.21;54.01;98509.78;8222046;28;20231;-74
2022/10/04 18:32:31;;;;;;;0.00;0.00;;;;;;;15.97;54.38;98511.22;8221704;28;20294;-74
2022/10/04 18:36:50;;;;;;;0.00;0.00;;;;;;;15.80;54.81;98520.00;8228113;28;20235;-76
2022/10/04 18:40:55;;;;;;;0.00;0.00;;;;;;;15.69;55.18;98533.66;8221462;28;20226;-75
2022/10/04 18:45:01;;;;;;;0.00;0.00;;;;;;;15.60;55.42;98531.56;8221392;28;20247;-74
2022/10/04 18:49:14;;;;;;;0.10;0.10;;;;;;;15.54;55.59;98534.50;8221573;28;20241;-74
2022/10/04 18:53:32;;;;;;;0.00;0.00;;;;;;;15.49;55.82;98546.97;8221657;28;20238;-75
2022/10/04 19:01:58;;;;;;;0.00;0.00;;;;;;;15.35;56.23;98545.97;8227731;28;20309;-74
2022/10/04 19:02:08;;;;;;;0.00;0.00;;;;;;;15.25;56.45;98548.22;8220935;28;20230;-74
2022/10/04 19:06:15;;;;;;;0.00;0.00;;;;;;;15.17;57.23;98546.94;8220608;28;20245;-75
2022/10/04 19:10:24;;;;;;;0.00;0.00;;;;;;;15.17;57.09;98542.59;8220833;28;20525;-73
2022/10/04 19:14:32;;;;;;;0.00;0.00;;;;;;;15.03;57.60;98543.31;8252230;28;20250;-73
2022/10/04 19:18:46;;;;;;;0.00;0.00;;;;;;;14.97;57.37;98538.44;8252363;28;20234;-73
2022/10/04 19:22:53;;;;;;;0.00;0.00;;;;;;;15.04;57.69;98534.56;8252246;28;20233;-73
2022/10/04 19:26:59;;;;;;;0.00;0.00;;;;;;;14.94;57.31;98535.13;8252326;28;20525;-72
2022/10/04 19:31:09;;;;;;;0.07;0.07;;;;;;;14.94;56.99;98535.97;8252154;28;20300;-73
2022/10/04 19:35:24;;;;;;;0.10;0.10;;;;;;;14.99;56.93;98541.78;8252113;28;20547;-74
2022/10/04 19:39:40;;;;;;;0.00;0.00;;;;;;;14.91;57.00;98548.31;8251079;28;20237;-74
2022/10/04 19:43:49;;;;;;;0.00;0.00;;;;;;;14.93;57.34;98554.34;8250987;28;20565;-72
2022/10/04 19:47:55;;;;;;;0.00;0.00;;;;;;;14.89;57.35;98565.81;8251037;28;20313;-73
2022/10/04 19:52:12;;;;;;;0.00;0.00;;;;;;;14.82;57.58;98563.53;8251217;28;20449;-72
2022/10/04 19:56:19;;;;;;;0.00;0.00;;;;;;;14.78;57.87;98556.81;8250979;28;20233;-72
2022/10/04 20:00:21;;;;;;;0.00;0.00;;;;;;;14.25;58.96;98552.53;8251022;28;20237;-73
2022/10/04 20:04:37;;;;;;;0.03;0.03;;;;;;;14.60;58.47;98562.97;8250839;28;20242;-73
2022/10/04 20:08:53;;;;;;;0.00;0.00;;;;;;;14.27;59.38;98556.75;8250161;28;20310;-73
2022/10/04 20:13:22;;;;;;;0.00;0.00;;;;;;;14.53;58.72;98561.59;8251023;28;20292;-73
2022/10/04 20:17:32;;;;;;;0.00;0.00;;;;;;;14.54;58.65;98561.47;8250276;28;20242;-73
2022/10/04 20:21:35;;;;;;;0.00;0.00;;;;;;;14.50;58.85;98565.16;8250033;28;20238;-73
2022/10/04 20:26:01;;;;;;;0.00;0.00;;;;;;;14.54;58.44;98577.13;8250280;28;20250;-73
2022/10/04 20:30:11;;;;;;;0.00;0.00;;;;;;;14.39;59.11;98578.75;8250369;28;20336;-74
2022/10/04 20:34:32;;;;;;;0.00;0.00;;;;;;;14.29;59.21;98569.69;8249889;28;20246;-74